Terminal Aerodrome Forecast
Issued by NWS

Home | Current Version | Previous Version | Text Only | Print | Product List | Glossary On
Versions: 1 2 3 4 5 6 7 8 9 10 11 12 13 14 15 16
000
FTUS45 KVEF 210500
TAFEED
TAF
KEED 210526Z 2106/2206 22009KT P6SM BKN120
     FM210900 VRB06KT P6SM BKN120
     FM212000 20010G20KT P6SM BKN100 PROB30 2121/2203 -TSRA BKN090CB
     FM220400 22010KT P6SM SCT100=

USA.gov is the U.S. government's official web portal to all federal, state and local government web resources and services.